sensor_id;sensor_type;location;lat;lon;timestamp;P1;durP1;ratioP1;P2;durP2;ratioP2
17844;SDS011;9047;53.486;10.218;2023-01-19T00:01:31;20.67;;;10.60;;
17844;SDS011;9047;53.486;10.218;2023-01-19T00:03:59;19.00;;;10.40;;
17844;SDS011;9047;53.486;10.218;2023-01-19T00:06:25;21.20;;;11.52;;
17844;SDS011;9047;53.486;10.218;2023-01-19T00:08:55;19.05;;;10.18;;
17844;SDS011;9047;53.486;10.218;2023-01-19T00:11:25;21.27;;;10.45;;
17844;SDS011;9047;53.486;10.218;2023-01-19T00:13:54;19.33;;;10.02;;
17844;SDS011;9047;53.486;10.218;2023-01-19T00:16:24;20.80;;;10.88;;
17844;SDS011;9047;53.486;10.218;2023-01-19T00:18:52;23.52;;;10.45;;
17844;SDS011;9047;53.486;10.218;2023-01-19T00:21:19;20.33;;;10.55;;
17844;SDS011;9047;53.486;10.218;2023-01-19T00:23:48;22.05;;;10.63;;
17844;SDS011;9047;53.486;10.218;2023-01-19T00:26:16;19.52;;;10.68;;
17844;SDS011;9047;53.486;10.218;2023-01-19T00:28:46;19.25;;;10.57;;
17844;SDS011;9047;53.486;10.218;2023-01-19T00:31:13;17.58;;;9.75;;
17844;SDS011;9047;53.486;10.218;2023-01-19T00:33:42;19.90;;;10.48;;
17844;SDS011;9047;53.486;10.218;2023-01-19T00:36:12;18.73;;;10.30;;
17844;SDS011;9047;53.486;10.218;2023-01-19T00:38:40;23.30;;;10.82;;
17844;SDS011;9047;53.486;10.218;2023-01-19T00:41:08;21.27;;;10.43;;
17844;SDS011;9047;53.486;10.218;2023-01-19T00:43:35;19.90;;;10.20;;
17844;SDS011;9047;53.486;10.218;2023-01-19T00:46:01;16.70;;;9.70;;
17844;SDS011;9047;53.486;10.218;2023-01-19T00:48:28;20.80;;;11.23;;
17844;SDS011;9047;53.486;10.218;2023-01-19T00:50:57;19.25;;;10.88;;
17844;SDS011;9047;53.486;10.218;2023-01-19T00:53:25;22.08;;;10.95;;
17844;SDS011;9047;53.486;10.218;2023-01-19T00:55:57;18.70;;;10.27;;
17844;SDS011;9047;53.486;10.218;2023-01-19T00:58:24;19.15;;;10.30;;
17844;SDS011;9047;53.486;10.218;2023-01-19T01:00:53;18.70;;;10.65;;
17844;SDS011;9047;53.486;10.218;2023-01-19T01:03:27;20.85;;;10.73;;
17844;SDS011;9047;53.486;10.218;2023-01-19T01:05:54;22.00;;;10.57;;
17844;SDS011;9047;53.486;10.218;2023-01-19T01:08:22;21.17;;;11.25;;
17844;SDS011;9047;53.486;10.218;2023-01-19T01:10:50;19.48;;;11.02;;
17844;SDS011;9047;53.486;10.218;2023-01-19T01:13:17;20.17;;;10.70;;
17844;SDS011;9047;53.486;10.218;2023-01-19T01:15:44;23.60;;;10.60;;
17844;SDS011;9047;53.486;10.218;2023-01-19T01:18:15;17.58;;;10.68;;
17844;SDS011;9047;53.486;10.218;2023-01-19T01:20:49;18.55;;;10.15;;
17844;SDS011;9047;53.486;10.218;2023-01-19T01:23:17;21.02;;;10.40;;
17844;SDS011;9047;53.486;10.218;2023-01-19T01:25:48;18.10;;;10.05;;
17844;SDS011;9047;53.486;10.218;2023-01-19T01:28:15;19.38;;;10.27;;
17844;SDS011;9047;53.486;10.218;2023-01-19T01:30:43;19.63;;;10.00;;
17844;SDS011;9047;53.486;10.218;2023-01-19T01:33:10;17.73;;;9.75;;
17844;SDS011;9047;53.486;10.218;2023-01-19T01:35:38;18.23;;;10.35;;
17844;SDS011;9047;53.486;10.218;2023-01-19T01:38:05;20.10;;;9.43;;
17844;SDS011;9047;53.486;10.218;2023-01-19T01:40:33;18.27;;;9.95;;
17844;SDS011;9047;53.486;10.218;2023-01-19T01:43:08;19.33;;;9.95;;
17844;SDS011;9047;53.486;10.218;2023-01-19T01:45:39;18.48;;;10.38;;
17844;SDS011;9047;53.486;10.218;2023-01-19T01:48:07;20.92;;;10.27;;
17844;SDS011;9047;53.486;10.218;2023-01-19T01:50:38;17.95;;;10.23;;
17844;SDS011;9047;53.486;10.218;2023-01-19T01:53:30;19.02;;;10.05;;
17844;SDS011;9047;53.486;10.218;2023-01-19T01:56:09;17.30;;;10.13;;
17844;SDS011;9047;53.486;10.218;2023-01-19T01:58:41;18.05;;;10.20;;
17844;SDS011;9047;53.486;10.218;2023-01-19T02:01:10;16.98;;;9.73;;
17844;SDS011;9047;53.486;10.218;2023-01-19T02:03:56;18.52;;;9.88;;
17844;SDS011;9047;53.486;10.218;2023-01-19T02:06:23;17.25;;;9.57;;
17844;SDS011;9047;53.486;10.218;2023-01-19T02:08:51;16.67;;;9.70;;
17844;SDS011;9047;53.486;10.218;2023-01-19T02:11:40;18.85;;;9.88;;
17844;SDS011;9047;53.486;10.218;2023-01-19T02:14:26;15.93;;;9.20;;
17844;SDS011;9047;53.486;10.218;2023-01-19T02:16:54;16.50;;;9.07;;
17844;SDS011;9047;53.486;10.218;2023-01-19T02:19:23;17.75;;;9.48;;
17844;SDS011;9047;53.486;10.218;2023-01-19T02:21:57;15.05;;;9.30;;
17844;SDS011;9047;53.486;10.218;2023-01-19T02:24:29;18.48;;;9.48;;
17844;SDS011;9047;53.486;10.218;2023-01-19T02:26:57;16.30;;;9.30;;
17844;SDS011;9047;53.486;10.218;2023-01-19T02:29:25;17.38;;;9.48;;
17844;SDS011;9047;53.486;10.218;2023-01-19T02:31:53;17.95;;;9.48;;
17844;SDS011;9047;53.486;10.218;2023-01-19T02:34:21;18.98;;;9.63;;
17844;SDS011;9047;53.486;10.218;2023-01-19T02:36:49;20.35;;;9.55;;
17844;SDS011;9047;53.486;10.218;2023-01-19T02:39:21;14.57;;;9.20;;
17844;SDS011;9047;53.486;10.218;2023-01-19T02:41:58;15.65;;;9.48;;
17844;SDS011;9047;53.486;10.218;2023-01-19T02:44:27;17.70;;;9.50;;
17844;SDS011;9047;53.486;10.218;2023-01-19T02:46:55;17.98;;;8.90;;
17844;SDS011;9047;53.486;10.218;2023-01-19T02:49:22;17.00;;;9.90;;
17844;SDS011;9047;53.486;10.218;2023-01-19T02:51:53;15.20;;;9.50;;
17844;SDS011;9047;53.486;10.218;2023-01-19T02:54:24;15.73;;;9.48;;
17844;SDS011;9047;53.486;10.218;2023-01-19T02:57:07;15.95;;;9.07;;
17844;SDS011;9047;53.486;10.218;2023-01-19T02:59:59;17.05;;;9.35;;
17844;SDS011;9047;53.486;10.218;2023-01-19T03:02:34;16.85;;;9.77;;
17844;SDS011;9047;53.486;10.218;2023-01-19T03:05:13;18.95;;;9.70;;
17844;SDS011;9047;53.486;10.218;2023-01-19T03:07:49;15.88;;;9.13;;
17844;SDS011;9047;53.486;10.218;2023-01-19T03:10:25;16.70;;;9.85;;
17844;SDS011;9047;53.486;10.218;2023-01-19T03:13:00;15.77;;;9.98;;
17844;SDS011;9047;53.486;10.218;2023-01-19T03:15:36;17.90;;;9.82;;
17844;SDS011;9047;53.486;10.218;2023-01-19T03:18:08;17.77;;;9.90;;
17844;SDS011;9047;53.486;10.218;2023-01-19T03:20:40;17.58;;;10.25;;
17844;SDS011;9047;53.486;10.218;2023-01-19T03:23:11;17.05;;;9.88;;
17844;SDS011;9047;53.486;10.218;2023-01-19T03:25:43;17.95;;;9.52;;
17844;SDS011;9047;53.486;10.218;2023-01-19T03:28:14;15.35;;;9.70;;
17844;SDS011;9047;53.486;10.218;2023-01-19T03:30:45;18.20;;;9.90;;
17844;SDS011;9047;53.486;10.218;2023-01-19T03:33:23;17.20;;;9.80;;
17844;SDS011;9047;53.486;10.218;2023-01-19T03:35:55;15.93;;;9.77;;
17844;SDS011;9047;53.486;10.218;2023-01-19T03:38:28;17.90;;;9.60;;
17844;SDS011;9047;53.486;10.218;2023-01-19T03:41:02;16.17;;;10.27;;
17844;SDS011;9047;53.486;10.218;2023-01-19T03:43:33;17.75;;;9.82;;
17844;SDS011;9047;53.486;10.218;2023-01-19T03:46:02;18.15;;;10.25;;
17844;SDS011;9047;53.486;10.218;2023-01-19T03:48:32;19.35;;;10.60;;
17844;SDS011;9047;53.486;10.218;2023-01-19T03:51:01;16.55;;;10.32;;
17844;SDS011;9047;53.486;10.218;2023-01-19T03:53:29;15.35;;;9.82;;
17844;SDS011;9047;53.486;10.218;2023-01-19T03:55:56;16.65;;;9.82;;
17844;SDS011;9047;53.486;10.218;2023-01-19T03:58:24;18.10;;;10.35;;
17844;SDS011;9047;53.486;10.218;2023-01-19T04:00:54;15.98;;;9.88;;
17844;SDS011;9047;53.486;10.218;2023-01-19T04:03:21;19.55;;;9.93;;
17844;SDS011;9047;53.486;10.218;2023-01-19T04:05:51;16.13;;;9.95;;
17844;SDS011;9047;53.486;10.218;2023-01-19T04:08:19;16.75;;;9.50;;
17844;SDS011;9047;53.486;10.218;2023-01-19T04:10:46;16.02;;;10.18;;
17844;SDS011;9047;53.486;10.218;2023-01-19T04:13:16;18.05;;;10.00;;
17844;SDS011;9047;53.486;10.218;2023-01-19T04:15:43;18.75;;;10.77;;
17844;SDS011;9047;53.486;10.218;2023-01-19T04:18:13;16.83;;;10.05;;
17844;SDS011;9047;53.486;10.218;2023-01-19T04:20:40;16.77;;;10.30;;
17844;SDS011;9047;53.486;10.218;2023-01-19T04:23:07;17.52;;;10.45;;
17844;SDS011;9047;53.486;10.218;2023-01-19T04:25:34;18.13;;;9.68;;
17844;SDS011;9047;53.486;10.218;2023-01-19T04:28:02;19.17;;;9.77;;
17844;SDS011;9047;53.486;10.218;2023-01-19T04:30:28;15.60;;;10.02;;
17844;SDS011;9047;53.486;10.218;2023-01-19T04:32:57;18.42;;;10.98;;
17844;SDS011;9047;53.486;10.218;2023-01-19T04:35:26;19.77;;;11.40;;
17844;SDS011;9047;53.486;10.218;2023-01-19T04:37:52;15.65;;;10.27;;
17844;SDS011;9047;53.486;10.218;2023-01-19T04:40:19;17.88;;;10.77;;
17844;SDS011;9047;53.486;10.218;2023-01-19T04:42:46;16.90;;;10.55;;
17844;SDS011;9047;53.486;10.218;2023-01-19T04:45:13;16.55;;;10.13;;
17844;SDS011;9047;53.486;10.218;2023-01-19T04:47:41;19.42;;;10.52;;
17844;SDS011;9047;53.486;10.218;2023-01-19T04:50:09;18.38;;;11.48;;
17844;SDS011;9047;53.486;10.218;2023-01-19T04:52:38;17.70;;;10.35;;
17844;SDS011;9047;53.486;10.218;2023-01-19T04:55:05;16.15;;;10.60;;
17844;SDS011;9047;53.486;10.218;2023-01-19T04:57:35;19.55;;;11.10;;
17844;SDS011;9047;53.486;10.218;2023-01-19T05:00:03;16.65;;;10.98;;
17844;SDS011;9047;53.486;10.218;2023-01-19T05:02:31;21.05;;;10.68;;
17844;SDS011;9047;53.486;10.218;2023-01-19T05:05:02;18.98;;;11.00;;
17844;SDS011;9047;53.486;10.218;2023-01-19T05:07:30;19.23;;;11.30;;
17844;SDS011;9047;53.486;10.218;2023-01-19T05:09:59;17.42;;;10.85;;
17844;SDS011;9047;53.486;10.218;2023-01-19T05:12:26;19.98;;;11.57;;
17844;SDS011;9047;53.486;10.218;2023-01-19T05:14:53;18.23;;;11.35;;
17844;SDS011;9047;53.486;10.218;2023-01-19T05:17:20;21.15;;;11.48;;
17844;SDS011;9047;53.486;10.218;2023-01-19T05:19:49;20.40;;;11.55;;
17844;SDS011;9047;53.486;10.218;2023-01-19T05:22:16;17.00;;;10.75;;
17844;SDS011;9047;53.486;10.218;2023-01-19T05:24:43;18.33;;;11.27;;
17844;SDS011;9047;53.486;10.218;2023-01-19T05:27:12;17.67;;;10.95;;
17844;SDS011;9047;53.486;10.218;2023-01-19T05:29:38;20.05;;;10.90;;
17844;SDS011;9047;53.486;10.218;2023-01-19T05:32:06;21.65;;;11.10;;
17844;SDS011;9047;53.486;10.218;2023-01-19T05:34:33;17.92;;;11.00;;
17844;SDS011;9047;53.486;10.218;2023-01-19T05:37:02;17.20;;;10.85;;
17844;SDS011;9047;53.486;10.218;2023-01-19T05:39:30;17.90;;;10.10;;
17844;SDS011;9047;53.486;10.218;2023-01-19T05:41:58;22.05;;;11.73;;
17844;SDS011;9047;53.486;10.218;2023-01-19T05:44:28;19.50;;;11.48;;
17844;SDS011;9047;53.486;10.218;2023-01-19T05:46:56;21.45;;;11.57;;
17844;SDS011;9047;53.486;10.218;2023-01-19T05:49:23;22.75;;;12.10;;
17844;SDS011;9047;53.486;10.218;2023-01-19T05:51:50;21.42;;;11.93;;
17844;SDS011;9047;53.486;10.218;2023-01-19T05:54:20;18.50;;;11.40;;
17844;SDS011;9047;53.486;10.218;2023-01-19T05:56:48;24.33;;;12.40;;
17844;SDS011;9047;53.486;10.218;2023-01-19T05:59:15;20.20;;;12.48;;
17844;SDS011;9047;53.486;10.218;2023-01-19T06:01:56;21.58;;;12.82;;
17844;SDS011;9047;53.486;10.218;2023-01-19T06:04:24;20.25;;;11.85;;
17844;SDS011;9047;53.486;10.218;2023-01-19T06:06:51;21.25;;;12.52;;
17844;SDS011;9047;53.486;10.218;2023-01-19T06:09:18;21.20;;;13.05;;
17844;SDS011;9047;53.486;10.218;2023-01-19T06:11:45;21.55;;;12.40;;
17844;SDS011;9047;53.486;10.218;2023-01-19T06:14:12;22.23;;;12.90;;
17844;SDS011;9047;53.486;10.218;2023-01-19T06:16:41;21.55;;;13.18;;
17844;SDS011;9047;53.486;10.218;2023-01-19T06:19:09;21.92;;;12.13;;
17844;SDS011;9047;53.486;10.218;2023-01-19T06:21:36;21.13;;;13.18;;
17844;SDS011;9047;53.486;10.218;2023-01-19T06:24:05;23.33;;;13.48;;
17844;SDS011;9047;53.486;10.218;2023-01-19T06:26:32;24.02;;;14.45;;
17844;SDS011;9047;53.486;10.218;2023-01-19T06:28:59;22.92;;;15.13;;
17844;SDS011;9047;53.486;10.218;2023-01-19T06:31:26;24.75;;;15.30;;
17844;SDS011;9047;53.486;10.218;2023-01-19T06:33:53;24.10;;;13.73;;
17844;SDS011;9047;53.486;10.218;2023-01-19T06:36:22;24.00;;;15.10;;
17844;SDS011;9047;53.486;10.218;2023-01-19T06:38:50;24.40;;;15.70;;
17844;SDS011;9047;53.486;10.218;2023-01-19T06:41:18;25.48;;;15.10;;
17844;SDS011;9047;53.486;10.218;2023-01-19T06:43:45;28.23;;;15.65;;
17844;SDS011;9047;53.486;10.218;2023-01-19T06:46:15;25.83;;;16.33;;
17844;SDS011;9047;53.486;10.218;2023-01-19T06:48:42;30.02;;;17.27;;
17844;SDS011;9047;53.486;10.218;2023-01-19T06:51:13;25.83;;;16.27;;
17844;SDS011;9047;53.486;10.218;2023-01-19T06:53:43;30.30;;;17.85;;
17844;SDS011;9047;53.486;10.218;2023-01-19T06:56:10;26.90;;;17.55;;
17844;SDS011;9047;53.486;10.218;2023-01-19T06:58:38;26.02;;;16.42;;
17844;SDS011;9047;53.486;10.218;2023-01-19T07:01:07;25.77;;;16.13;;
17844;SDS011;9047;53.486;10.218;2023-01-19T07:03:34;25.40;;;15.77;;
17844;SDS011;9047;53.486;10.218;2023-01-19T07:06:04;28.48;;;16.50;;
17844;SDS011;9047;53.486;10.218;2023-01-19T07:08:32;27.15;;;16.60;;
17844;SDS011;9047;53.486;10.218;2023-01-19T07:11:02;27.67;;;16.58;;
17844;SDS011;9047;53.486;10.218;2023-01-19T07:13:30;30.15;;;16.70;;
17844;SDS011;9047;53.486;10.218;2023-01-19T07:16:02;25.52;;;16.05;;
17844;SDS011;9047;53.486;10.218;2023-01-19T07:18:32;26.45;;;17.05;;
17844;SDS011;9047;53.486;10.218;2023-01-19T07:20:59;26.30;;;16.15;;
17844;SDS011;9047;53.486;10.218;2023-01-19T07:23:26;29.88;;;17.08;;
17844;SDS011;9047;53.486;10.218;2023-01-19T07:25:55;25.33;;;16.55;;
17844;SDS011;9047;53.486;10.218;2023-01-19T07:28:31;27.48;;;17.13;;
17844;SDS011;9047;53.486;10.218;2023-01-19T07:31:01;29.52;;;17.67;;
17844;SDS011;9047;53.486;10.218;2023-01-19T07:33:29;28.40;;;17.23;;
17844;SDS011;9047;53.486;10.218;2023-01-19T07:35:58;30.00;;;18.33;;
17844;SDS011;9047;53.486;10.218;2023-01-19T07:38:26;32.60;;;17.80;;
17844;SDS011;9047;53.486;10.218;2023-01-19T07:40:58;39.08;;;19.58;;
17844;SDS011;9047;53.486;10.218;2023-01-19T07:43:27;34.92;;;18.08;;
17844;SDS011;9047;53.486;10.218;2023-01-19T07:45:55;38.08;;;18.70;;
17844;SDS011;9047;53.486;10.218;2023-01-19T07:48:22;34.95;;;18.35;;
17844;SDS011;9047;53.486;10.218;2023-01-19T07:50:49;29.45;;;17.45;;
17844;SDS011;9047;53.486;10.218;2023-01-19T07:53:16;32.20;;;18.73;;
17844;SDS011;9047;53.486;10.218;2023-01-19T07:55:44;32.00;;;18.80;;
17844;SDS011;9047;53.486;10.218;2023-01-19T07:58:11;32.03;;;17.98;;
17844;SDS011;9047;53.486;10.218;2023-01-19T08:00:41;36.00;;;18.75;;
17844;SDS011;9047;53.486;10.218;2023-01-19T08:03:08;28.98;;;17.95;;
17844;SDS011;9047;53.486;10.218;2023-01-19T08:05:37;28.23;;;17.58;;
17844;SDS011;9047;53.486;10.218;2023-01-19T08:08:05;30.40;;;18.00;;
17844;SDS011;9047;53.486;10.218;2023-01-19T08:10:32;30.17;;;17.02;;
17844;SDS011;9047;53.486;10.218;2023-01-19T08:13:01;28.88;;;17.35;;
17844;SDS011;9047;53.486;10.218;2023-01-19T08:15:28;28.10;;;17.23;;
17844;SDS011;9047;53.486;10.218;2023-01-19T08:18:00;29.85;;;17.52;;
17844;SDS011;9047;53.486;10.218;2023-01-19T08:20:30;30.90;;;17.33;;
17844;SDS011;9047;53.486;10.218;2023-01-19T08:22:57;27.08;;;17.25;;
17844;SDS011;9047;53.486;10.218;2023-01-19T08:25:25;32.15;;;17.85;;
17844;SDS011;9047;53.486;10.218;2023-01-19T08:27:53;27.95;;;17.02;;
17844;SDS011;9047;53.486;10.218;2023-01-19T08:30:26;33.85;;;18.02;;
17844;SDS011;9047;53.486;10.218;2023-01-19T08:32:55;31.90;;;19.25;;
17844;SDS011;9047;53.486;10.218;2023-01-19T08:35:30;30.40;;;18.63;;
17844;SDS011;9047;53.486;10.218;2023-01-19T08:37:59;30.33;;;18.00;;
17844;SDS011;9047;53.486;10.218;2023-01-19T08:40:26;30.88;;;18.05;;
17844;SDS011;9047;53.486;10.218;2023-01-19T08:42:56;34.63;;;19.45;;
17844;SDS011;9047;53.486;10.218;2023-01-19T08:45:27;34.83;;;18.70;;
17844;SDS011;9047;53.486;10.218;2023-01-19T08:47:55;32.22;;;18.45;;
17844;SDS011;9047;53.486;10.218;2023-01-19T08:50:24;29.73;;;17.90;;
17844;SDS011;9047;53.486;10.218;2023-01-19T08:52:51;28.02;;;18.23;;
17844;SDS011;9047;53.486;10.218;2023-01-19T08:55:22;31.30;;;18.55;;
17844;SDS011;9047;53.486;10.218;2023-01-19T08:57:49;30.15;;;18.05;;
17844;SDS011;9047;53.486;10.218;2023-01-19T09:00:18;36.03;;;19.48;;
17844;SDS011;9047;53.486;10.218;2023-01-19T09:02:46;30.70;;;17.83;;
17844;SDS011;9047;53.486;10.218;2023-01-19T09:05:15;29.33;;;18.38;;
17844;SDS011;9047;53.486;10.218;2023-01-19T09:07:44;31.33;;;17.85;;
17844;SDS011;9047;53.486;10.218;2023-01-19T09:10:16;30.80;;;19.02;;
17844;SDS011;9047;53.486;10.218;2023-01-19T09:12:44;31.63;;;18.90;;
17844;SDS011;9047;53.486;10.218;2023-01-19T09:15:11;28.50;;;17.88;;
17844;SDS011;9047;53.486;10.218;2023-01-19T09:17:41;29.83;;;17.88;;
17844;SDS011;9047;53.486;10.218;2023-01-19T09:20:11;31.33;;;17.33;;
17844;SDS011;9047;53.486;10.218;2023-01-19T09:22:39;30.63;;;17.27;;
17844;SDS011;9047;53.486;10.218;2023-01-19T09:25:09;28.42;;;17.35;;
17844;SDS011;9047;53.486;10.218;2023-01-19T09:27:38;30.73;;;17.50;;
17844;SDS011;9047;53.486;10.218;2023-01-19T09:30:06;29.10;;;16.88;;
17844;SDS011;9047;53.486;10.218;2023-01-19T09:32:36;29.60;;;16.77;;
17844;SDS011;9047;53.486;10.218;2023-01-19T09:35:03;26.13;;;16.08;;
17844;SDS011;9047;53.486;10.218;2023-01-19T09:37:30;28.27;;;15.73;;
17844;SDS011;9047;53.486;10.218;2023-01-19T09:39:58;26.52;;;15.52;;
17844;SDS011;9047;53.486;10.218;2023-01-19T09:42:29;27.92;;;15.90;;
17844;SDS011;9047;53.486;10.218;2023-01-19T09:45:00;25.35;;;14.95;;
17844;SDS011;9047;53.486;10.218;2023-01-19T09:47:29;23.70;;;15.05;;
17844;SDS011;9047;53.486;10.218;2023-01-19T09:50:02;26.45;;;15.70;;
17844;SDS011;9047;53.486;10.218;2023-01-19T09:52:31;26.70;;;14.65;;
17844;SDS011;9047;53.486;10.218;2023-01-19T09:55:07;27.25;;;15.13;;
17844;SDS011;9047;53.486;10.218;2023-01-19T09:57:49;26.05;;;15.45;;
17844;SDS011;9047;53.486;10.218;2023-01-19T10:00:17;24.83;;;14.77;;
17844;SDS011;9047;53.486;10.218;2023-01-19T10:02:47;25.52;;;14.82;;
17844;SDS011;9047;53.486;10.218;2023-01-19T10:05:21;27.45;;;15.10;;
17844;SDS011;9047;53.486;10.218;2023-01-19T10:08:00;25.65;;;14.98;;
17844;SDS011;9047;53.486;10.218;2023-01-19T10:10:37;25.95;;;14.45;;
17844;SDS011;9047;53.486;10.218;2023-01-19T10:13:15;25.08;;;14.45;;
17844;SDS011;9047;53.486;10.218;2023-01-19T10:15:53;24.23;;;13.77;;
17844;SDS011;9047;53.486;10.218;2023-01-19T10:18:27;21.40;;;13.90;;
17844;SDS011;9047;53.486;10.218;2023-01-19T10:21:09;23.88;;;13.50;;
17844;SDS011;9047;53.486;10.218;2023-01-19T10:23:40;23.92;;;13.45;;
17844;SDS011;9047;53.486;10.218;2023-01-19T10:26:12;25.15;;;14.77;;
17844;SDS011;9047;53.486;10.218;2023-01-19T10:28:43;20.98;;;12.38;;
17844;SDS011;9047;53.486;10.218;2023-01-19T10:31:13;20.63;;;13.32;;
17844;SDS011;9047;53.486;10.218;2023-01-19T10:33:44;21.60;;;14.02;;
17844;SDS011;9047;53.486;10.218;2023-01-19T10:36:16;18.20;;;12.45;;
17844;SDS011;9047;53.486;10.218;2023-01-19T10:38:44;21.08;;;12.93;;
17844;SDS011;9047;53.486;10.218;2023-01-19T10:41:14;21.13;;;12.05;;
17844;SDS011;9047;53.486;10.218;2023-01-19T10:43:50;18.40;;;11.80;;
17844;SDS011;9047;53.486;10.218;2023-01-19T10:46:27;18.48;;;11.20;;
17844;SDS011;9047;53.486;10.218;2023-01-19T10:49:02;15.57;;;10.95;;
17844;SDS011;9047;53.486;10.218;2023-01-19T10:51:31;17.85;;;11.13;;
17844;SDS011;9047;53.486;10.218;2023-01-19T10:53:59;14.05;;;10.10;;
17844;SDS011;9047;53.486;10.218;2023-01-19T10:56:31;17.02;;;10.65;;
17844;SDS011;9047;53.486;10.218;2023-01-19T10:59:02;14.65;;;10.05;;
17844;SDS011;9047;53.486;10.218;2023-01-19T11:01:31;14.85;;;10.13;;
17844;SDS011;9047;53.486;10.218;2023-01-19T11:04:19;15.55;;;9.90;;
17844;SDS011;9047;53.486;10.218;2023-01-19T11:06:57;14.02;;;10.52;;
17844;SDS011;9047;53.486;10.218;2023-01-19T11:09:39;15.95;;;11.07;;
17844;SDS011;9047;53.486;10.218;2023-01-19T11:12:13;17.08;;;10.77;;
17844;SDS011;9047;53.486;10.218;2023-01-19T11:14:45;16.52;;;11.00;;
17844;SDS011;9047;53.486;10.218;2023-01-19T11:17:17;17.08;;;11.02;;
17844;SDS011;9047;53.486;10.218;2023-01-19T11:19:56;15.07;;;10.20;;
17844;SDS011;9047;53.486;10.218;2023-01-19T11:22:32;13.45;;;10.07;;
17844;SDS011;9047;53.486;10.218;2023-01-19T11:25:00;16.65;;;10.65;;
17844;SDS011;9047;53.486;10.218;2023-01-19T11:27:30;15.38;;;10.60;;
17844;SDS011;9047;53.486;10.218;2023-01-19T11:30:03;14.63;;;10.30;;
17844;SDS011;9047;53.486;10.218;2023-01-19T11:32:34;16.02;;;11.00;;
17844;SDS011;9047;53.486;10.218;2023-01-19T11:38:04;18.35;;;11.35;;
17844;SDS011;9047;53.486;10.218;2023-01-19T11:40:45;13.35;;;10.07;;
17844;SDS011;9047;53.486;10.218;2023-01-19T11:43:17;14.48;;;10.18;;
17844;SDS011;9047;53.486;10.218;2023-01-19T11:45:51;15.55;;;11.00;;
17844;SDS011;9047;53.486;10.218;2023-01-19T11:48:26;13.93;;;10.25;;
17844;SDS011;9047;53.486;10.218;2023-01-19T11:51:01;15.38;;;10.52;;
17844;SDS011;9047;53.486;10.218;2023-01-19T11:53:33;15.88;;;10.60;;
17844;SDS011;9047;53.486;10.218;2023-01-19T11:56:01;13.75;;;10.38;;
17844;SDS011;9047;53.486;10.218;2023-01-19T11:58:36;14.95;;;10.77;;
17844;SDS011;9047;53.486;10.218;2023-01-19T12:01:08;15.98;;;10.82;;
17844;SDS011;9047;53.486;10.218;2023-01-19T12:03:45;14.68;;;10.50;;
17844;SDS011;9047;53.486;10.218;2023-01-19T12:06:18;15.07;;;10.02;;
17844;SDS011;9047;53.486;10.218;2023-01-19T12:08:49;15.55;;;10.75;;
17844;SDS011;9047;53.486;10.218;2023-01-19T12:11:21;14.60;;;10.48;;
17844;SDS011;9047;53.486;10.218;2023-01-19T12:13:51;15.80;;;10.70;;
17844;SDS011;9047;53.486;10.218;2023-01-19T12:16:21;13.88;;;10.00;;
17844;SDS011;9047;53.486;10.218;2023-01-19T12:18:52;13.18;;;10.30;;
17844;SDS011;9047;53.486;10.218;2023-01-19T12:21:21;16.13;;;10.95;;
17844;SDS011;9047;53.486;10.218;2023-01-19T12:23:53;17.23;;;10.40;;
17844;SDS011;9047;53.486;10.218;2023-01-19T12:26:31;16.63;;;11.63;;
17844;SDS011;9047;53.486;10.218;2023-01-19T12:29:02;15.65;;;11.18;;
17844;SDS011;9047;53.486;10.218;2023-01-19T12:31:35;15.20;;;11.02;;
17844;SDS011;9047;53.486;10.218;2023-01-19T12:36:57;14.80;;;10.95;;
17844;SDS011;9047;53.486;10.218;2023-01-19T12:39:28;14.05;;;10.05;;
17844;SDS011;9047;53.486;10.218;2023-01-19T12:42:02;16.50;;;11.18;;
17844;SDS011;9047;53.486;10.218;2023-01-19T12:44:33;17.63;;;10.93;;
17844;SDS011;9047;53.486;10.218;2023-01-19T12:47:16;19.42;;;11.23;;
17844;SDS011;9047;53.486;10.218;2023-01-19T12:49:46;18.73;;;11.50;;
17844;SDS011;9047;53.486;10.218;2023-01-19T12:52:21;17.20;;;10.90;;
17844;SDS011;9047;53.486;10.218;2023-01-19T12:54:54;20.17;;;11.60;;
17844;SDS011;9047;53.486;10.218;2023-01-19T12:57:27;17.90;;;10.85;;
17844;SDS011;9047;53.486;10.218;2023-01-19T12:59:59;17.70;;;10.73;;
17844;SDS011;9047;53.486;10.218;2023-01-19T13:05:21;18.40;;;11.10;;
17844;SDS011;9047;53.486;10.218;2023-01-19T13:13:41;19.13;;;11.43;;
17844;SDS011;9047;53.486;10.218;2023-01-19T13:19:43;16.13;;;10.77;;
17844;SDS011;9047;53.486;10.218;2023-01-19T13:25:30;18.15;;;10.85;;
17844;SDS011;9047;53.486;10.218;2023-01-19T13:27:59;15.48;;;10.55;;
17844;SDS011;9047;53.486;10.218;2023-01-19T13:30:27;18.33;;;11.23;;
17844;SDS011;9047;53.486;10.218;2023-01-19T13:32:55;23.63;;;12.70;;
17844;SDS011;9047;53.486;10.218;2023-01-19T13:35:30;17.55;;;11.70;;
17844;SDS011;9047;53.486;10.218;2023-01-19T13:37:57;17.17;;;11.05;;
17844;SDS011;9047;53.486;10.218;2023-01-19T13:40:28;19.08;;;11.88;;
17844;SDS011;9047;53.486;10.218;2023-01-19T13:43:04;18.00;;;11.45;;
17844;SDS011;9047;53.486;10.218;2023-01-19T13:45:37;17.23;;;11.73;;
17844;SDS011;9047;53.486;10.218;2023-01-19T13:48:12;17.88;;;11.70;;
17844;SDS011;9047;53.486;10.218;2023-01-19T13:53:32;16.73;;;11.02;;
17844;SDS011;9047;53.486;10.218;2023-01-19T13:56:07;18.13;;;10.90;;
17844;SDS011;9047;53.486;10.218;2023-01-19T13:58:42;19.77;;;10.70;;
17844;SDS011;9047;53.486;10.218;2023-01-19T14:01:19;15.68;;;10.45;;
17844;SDS011;9047;53.486;10.218;2023-01-19T14:03:51;14.52;;;10.57;;
17844;SDS011;9047;53.486;10.218;2023-01-19T14:06:28;16.60;;;10.27;;
17844;SDS011;9047;53.486;10.218;2023-01-19T14:09:09;18.90;;;11.25;;
17844;SDS011;9047;53.486;10.218;2023-01-19T14:11:41;18.08;;;10.63;;
17844;SDS011;9047;53.486;10.218;2023-01-19T14:14:24;20.50;;;11.45;;
17844;SDS011;9047;53.486;10.218;2023-01-19T14:16:57;18.48;;;10.93;;
17844;SDS011;9047;53.486;10.218;2023-01-19T14:19:25;18.02;;;11.00;;
17844;SDS011;9047;53.486;10.218;2023-01-19T14:21:59;17.25;;;10.98;;
17844;SDS011;9047;53.486;10.218;2023-01-19T14:24:28;15.27;;;10.30;;
17844;SDS011;9047;53.486;10.218;2023-01-19T14:27:07;16.63;;;10.32;;
17844;SDS011;9047;53.486;10.218;2023-01-19T14:29:45;18.08;;;10.82;;
17844;SDS011;9047;53.486;10.218;2023-01-19T14:32:22;17.27;;;10.70;;
17844;SDS011;9047;53.486;10.218;2023-01-19T14:34:52;16.13;;;10.60;;
17844;SDS011;9047;53.486;10.218;2023-01-19T14:37:46;17.25;;;11.20;;
17844;SDS011;9047;53.486;10.218;2023-01-19T14:40:16;16.95;;;11.32;;
17844;SDS011;9047;53.486;10.218;2023-01-19T14:42:46;16.67;;;11.00;;
17844;SDS011;9047;53.486;10.218;2023-01-19T14:45:18;16.77;;;10.55;;
17844;SDS011;9047;53.486;10.218;2023-01-19T14:47:51;18.08;;;11.00;;
17844;SDS011;9047;53.486;10.218;2023-01-19T14:50:22;16.10;;;10.82;;
17844;SDS011;9047;53.486;10.218;2023-01-19T14:52:53;19.70;;;10.77;;
17844;SDS011;9047;53.486;10.218;2023-01-19T14:55:31;18.60;;;11.27;;
17844;SDS011;9047;53.486;10.218;2023-01-19T14:58:00;17.55;;;11.00;;
17844;SDS011;9047;53.486;10.218;2023-01-19T15:00:29;17.58;;;10.93;;
17844;SDS011;9047;53.486;10.218;2023-01-19T15:02:56;17.33;;;10.93;;
17844;SDS011;9047;53.486;10.218;2023-01-19T15:05:24;17.15;;;11.38;;
17844;SDS011;9047;53.486;10.218;2023-01-19T15:07:50;20.65;;;11.90;;